Terminal Aerodrome Forecast
Issued by NWS Wakefield, VA

Home | Current Version | Previous Version | Text Only | Print | Product List | Glossary On
Versions: 1 2 3 4 5 6 7 8 9 10 11 12 13 14 15 16 17
000
FTUS41 KAKQ 260900 AAA
TAFRIC
TAF AMD
KRIC 260911Z 2609/2706 05011KT 3SM -RA BR BKN008 OVC020
     FM261200 01015G25KT 2SM -RA BR OVC005
     FM262100 34013KT 3SM -RA BR OVC005
     FM270000 32006KT P6SM OVC050=

USA.gov is the U.S. government's official web portal to all federal, state and local government web resources and services.